createdAt,value
2023-04-18T00:00:05.619Z,52.83
2023-04-18T00:02:09.133Z,52.60
2023-04-18T00:04:13.482Z,52.88
2023-04-18T00:06:17.032Z,52.79
2023-04-18T00:08:19.867Z,52.85
2023-04-18T00:10:22.701Z,52.77
2023-04-18T00:12:27.096Z,52.48
2023-04-18T00:14:30.047Z,52.82
2023-04-18T00:16:33.052Z,52.44
2023-04-18T00:18:37.149Z,52.53
2023-04-18T00:20:40.105Z,52.62
2023-04-18T00:22:43.903Z,52.74
2023-04-18T00:24:46.687Z,52.89
2023-04-18T00:26:49.867Z,52.68
2023-04-18T00:28:53.964Z,52.64
2023-04-18T00:30:56.954Z,52.82
2023-04-18T00:33:00.291Z,52.68
2023-04-18T00:35:04.031Z,52.67
2023-04-18T00:37:07.241Z,52.65
2023-04-18T00:39:10.018Z,52.46
2023-04-18T00:41:12.779Z,52.69
2023-04-18T00:43:16.036Z,52.63
2023-04-18T00:45:20.507Z,52.89
2023-04-18T00:47:23.332Z,52.74
2023-04-18T00:49:28.053Z,52.47
2023-04-18T00:51:30.987Z,52.47
2023-04-18T00:53:33.741Z,52.54
2023-04-18T00:55:36.747Z,52.55
2023-04-18T00:57:39.885Z,52.67
2023-04-18T00:59:43.416Z,52.94
2023-04-18T01:01:48.098Z,52.70
2023-04-18T01:03:52.367Z,52.71
2023-04-18T01:05:57.375Z,53.04
2023-04-18T01:08:01.235Z,52.65
2023-04-18T01:10:04.832Z,52.98
2023-04-18T01:12:07.781Z,52.80
2023-04-18T01:14:10.649Z,53.06
2023-04-18T01:16:13.637Z,52.92
2023-04-18T01:18:18.400Z,52.93
2023-04-18T01:20:22.687Z,53.17
2023-04-18T01:22:25.671Z,53.20
2023-04-18T01:24:31.760Z,53.33
2023-04-18T01:26:34.772Z,53.52
2023-04-18T01:28:38.252Z,53.12
2023-04-18T01:30:41.548Z,53.40
2023-04-18T01:32:45.750Z,53.46
2023-04-18T01:34:48.660Z,53.37
2023-04-18T01:36:51.568Z,53.36
2023-04-18T01:38:56.811Z,53.39
2023-04-18T01:41:00.971Z,53.50
2023-04-18T01:43:03.727Z,53.24
2023-04-18T01:45:07.610Z,53.34
2023-04-18T01:47:10.712Z,53.41
2023-04-18T01:49:13.643Z,53.53
2023-04-18T01:51:16.412Z,53.41
2023-04-18T01:53:19.212Z,53.35
2023-04-18T01:55:22.208Z,53.35
2023-04-18T01:57:26.600Z,53.70
2023-04-18T01:59:29.351Z,53.74
2023-04-18T02:01:32.196Z,53.57
2023-04-18T02:03:35.385Z,53.52
2023-04-18T02:05:38.278Z,53.45
2023-04-18T02:07:42.682Z,53.63
2023-04-18T02:09:45.996Z,53.23
2023-04-18T02:11:48.855Z,53.50
2023-04-18T02:13:53.455Z,53.47
2023-04-18T02:15:56.309Z,53.39
2023-04-18T02:17:59.967Z,53.60
2023-04-18T02:20:02.790Z,53.36
2023-04-18T02:22:05.751Z,53.33
2023-04-18T02:24:09.848Z,53.52
2023-04-18T02:26:12.682Z,53.35
2023-04-18T02:28:15.483Z,53.37
2023-04-18T02:30:19.801Z,53.44
2023-04-18T02:32:22.590Z,53.52
2023-04-18T02:34:25.518Z,53.65
2023-04-18T02:36:28.383Z,53.51
2023-04-18T02:38:31.763Z,53.61
2023-04-18T02:40:34.906Z,53.62
2023-04-18T02:42:37.618Z,53.38
2023-04-18T02:44:40.328Z,53.71
2023-04-18T02:46:44.590Z,53.68
2023-04-18T02:48:47.427Z,53.50
2023-04-18T02:50:50.266Z,53.65
2023-04-18T02:52:53.103Z,53.43
2023-04-18T02:54:55.793Z,53.63
2023-04-18T02:56:58.524Z,53.87
2023-04-18T02:59:01.783Z,53.78
2023-04-18T03:01:04.632Z,53.86
2023-04-18T03:03:09.027Z,53.79
2023-04-18T03:05:12.313Z,53.65
2023-04-18T03:07:15.260Z,53.69
2023-04-18T03:09:18.036Z,53.40
2023-04-18T03:11:21.254Z,53.52
2023-04-18T03:13:24.148Z,53.77
2023-04-18T03:15:26.953Z,53.56
2023-04-18T03:17:29.912Z,53.75
2023-04-18T03:19:34.106Z,53.53
2023-04-18T03:21:36.884Z,53.54
2023-04-18T03:23:39.886Z,53.75
2023-04-18T03:25:42.702Z,53.53
2023-04-18T03:27:45.552Z,53.79
2023-04-18T03:29:48.455Z,53.61
2023-04-18T03:31:51.201Z,53.73
2023-04-18T03:33:53.887Z,53.77
2023-04-18T03:35:59.088Z,53.61
2023-04-18T03:38:01.928Z,53.59
2023-04-18T03:40:05.384Z,53.74
2023-04-18T03:42:08.320Z,53.53
2023-04-18T03:44:11.367Z,53.42
2023-04-18T03:46:14.384Z,53.94
2023-04-18T03:48:17.244Z,53.43
2023-04-18T03:50:20.327Z,53.76
2023-04-18T03:52:24.658Z,53.66
2023-04-18T03:54:29.333Z,53.63
2023-04-18T03:56:32.068Z,53.71
2023-04-18T03:58:34.825Z,53.81
2023-04-18T04:00:37.795Z,53.75
2023-04-18T04:02:40.761Z,54.02
2023-04-18T04:04:44.057Z,53.67
2023-04-18T04:06:47.203Z,53.71
2023-04-18T04:08:51.350Z,54.02
2023-04-18T04:10:54.108Z,53.75
2023-04-18T04:12:57.188Z,53.75
2023-04-18T04:14:59.978Z,53.78
2023-04-18T04:17:02.836Z,53.84
2023-04-18T04:19:06.177Z,53.76
2023-04-18T04:21:08.896Z,54.07
2023-04-18T04:23:11.774Z,53.82
2023-04-18T04:25:16.405Z,53.76
2023-04-18T04:27:20.478Z,54.12
2023-04-18T04:29:23.770Z,54.13
2023-04-18T04:31:26.754Z,53.81
2023-04-18T04:33:29.488Z,54.17
2023-04-18T04:35:34.686Z,54.18
2023-04-18T04:37:38.743Z,54.18
2023-04-18T04:39:41.541Z,54.10
2023-04-18T04:41:47.124Z,54.07
2023-04-18T04:43:51.126Z,54.07
2023-04-18T04:45:54.787Z,54.05
2023-04-18T04:47:58.795Z,54.06
2023-04-18T04:50:02.355Z,54.00
2023-04-18T04:52:05.250Z,54.43
2023-04-18T04:54:08.009Z,54.29
2023-04-18T04:56:11.134Z,54.31
2023-04-18T04:58:15.306Z,54.17
2023-04-18T05:00:20.808Z,54.17
2023-04-18T05:02:24.192Z,54.34
2023-04-18T05:04:27.353Z,54.14
2023-04-18T05:06:30.547Z,54.28
2023-04-18T05:08:33.322Z,54.62
2023-04-18T05:10:37.139Z,54.42
2023-04-18T05:12:40.020Z,54.34
2023-04-18T05:14:44.282Z,54.51
2023-04-18T05:16:47.533Z,54.32
2023-04-18T05:18:50.315Z,54.24
2023-04-18T05:20:53.293Z,54.61
2023-04-18T05:22:56.071Z,54.60
2023-04-18T05:24:58.822Z,54.45
2023-04-18T05:27:02.432Z,54.50
2023-04-18T05:29:05.388Z,54.58
2023-04-18T05:31:09.565Z,54.26
2023-04-18T05:33:12.485Z,54.48
2023-04-18T05:35:15.427Z,54.61
2023-04-18T05:37:18.173Z,54.40
2023-04-18T05:39:21.179Z,54.67
2023-04-18T05:41:25.360Z,54.29
2023-04-18T05:43:28.134Z,54.32
2023-04-18T05:45:31.092Z,54.54
2023-04-18T05:47:35.477Z,54.51
2023-04-18T05:49:38.295Z,54.27
2023-04-18T05:51:41.404Z,54.60
2023-04-18T05:53:44.302Z,54.24
2023-04-18T05:55:48.760Z,54.32
2023-04-18T05:57:51.565Z,54.49
2023-04-18T05:59:54.300Z,54.52
2023-04-18T06:01:58.281Z,54.41
2023-04-18T06:04:02.867Z,54.19
2023-04-18T06:06:07.212Z,54.54
2023-04-18T06:08:10.159Z,54.34
2023-04-18T06:10:14.528Z,54.40
2023-04-18T06:12:19.478Z,54.15
2023-04-18T06:14:22.452Z,54.54
2023-04-18T06:16:25.482Z,54.14
2023-04-18T06:18:28.386Z,54.08
2023-04-18T06:20:32.800Z,53.94
2023-04-18T06:22:35.756Z,53.99
2023-04-18T06:24:38.837Z,54.02
2023-04-18T06:26:42.100Z,54.27
2023-04-18T06:28:45.101Z,53.94
2023-04-18T06:30:47.897Z,53.96
2023-04-18T06:32:50.768Z,54.10
2023-04-18T06:34:54.840Z,54.24
2023-04-18T06:36:59.075Z,54.03
2023-04-18T06:39:02.018Z,54.27
2023-04-18T06:41:06.181Z,53.98
2023-04-18T06:43:09.169Z,54.17
2023-04-18T06:45:13.295Z,53.94
2023-04-18T06:47:16.175Z,54.16
2023-04-18T06:49:19.698Z,53.86
2023-04-18T06:51:22.807Z,53.95
2023-04-18T06:53:27.077Z,53.90
2023-04-18T06:55:31.692Z,54.25
2023-04-18T06:57:36.703Z,53.87
2023-04-18T06:59:44.549Z,53.95
2023-04-18T07:01:47.344Z,54.20
2023-04-18T07:03:50.861Z,53.90
2023-04-18T07:05:55.824Z,53.91
2023-04-18T07:07:58.806Z,53.87
2023-04-18T07:10:03.399Z,54.14
2023-04-18T07:12:07.167Z,54.04
2023-04-18T07:14:12.773Z,53.87
2023-04-18T07:16:15.935Z,53.89
2023-04-18T07:18:30.326Z,53.98
2023-04-18T07:20:40.530Z,53.89
2023-04-18T07:22:43.717Z,53.56
2023-04-18T07:24:46.734Z,53.84
2023-04-18T07:26:52.512Z,53.82
2023-04-18T07:28:57.566Z,53.56
2023-04-18T07:31:01.449Z,53.52
2023-04-18T07:33:04.429Z,53.78
2023-04-18T07:35:07.991Z,53.66
2023-04-18T07:37:12.547Z,53.78
2023-04-18T07:39:16.497Z,53.53
2023-04-18T07:41:19.324Z,53.59
2023-04-18T07:43:23.542Z,53.48
2023-04-18T07:45:26.618Z,53.79
2023-04-18T07:47:31.092Z,53.41
2023-04-18T07:49:34.868Z,53.42
2023-04-18T07:51:37.733Z,53.47
2023-04-18T07:53:41.770Z,53.28
2023-04-18T07:55:44.753Z,53.20
2023-04-18T07:57:50.280Z,53.43
2023-04-18T07:59:54.972Z,53.19
2023-04-18T08:01:57.992Z,53.38
2023-04-18T08:04:02.070Z,53.25
2023-04-18T08:06:05.814Z,53.20
2023-04-18T08:08:09.816Z,53.33
2023-04-18T08:10:12.970Z,53.00
2023-04-18T08:12:15.939Z,53.14
2023-04-18T08:14:19.045Z,52.90
2023-04-18T08:16:25.808Z,52.87
2023-04-18T08:18:28.984Z,52.99
2023-04-18T08:20:32.505Z,53.10
2023-04-18T08:22:39.306Z,52.88
2023-04-18T08:25:01.376Z,53.18
2023-04-18T08:27:07.289Z,52.81
2023-04-18T08:29:10.322Z,52.87
2023-04-18T08:31:17.243Z,53.15
2023-04-18T08:33:23.514Z,52.79
2023-04-18T08:35:26.543Z,52.85
2023-04-18T08:37:30.049Z,53.02
2023-04-18T08:39:32.985Z,52.71
2023-04-18T08:41:38.397Z,52.82
2023-04-18T08:43:41.382Z,52.73
2023-04-18T08:45:45.811Z,52.62
2023-04-18T08:47:49.064Z,52.82
2023-04-18T08:49:53.899Z,52.75
2023-04-18T08:51:57.628Z,52.50
2023-04-18T08:54:04.370Z,52.45
2023-04-18T08:56:10.710Z,52.58
2023-04-18T08:58:14.040Z,52.76
2023-04-18T09:00:19.428Z,52.70
2023-04-18T09:02:29.142Z,52.87
2023-04-18T09:04:37.482Z,52.66
2023-04-18T09:06:52.919Z,52.39
2023-04-18T09:08:58.925Z,52.42
2023-04-18T09:11:28.720Z,52.51
2023-04-18T09:13:41.296Z,52.41
2023-04-18T09:15:56.122Z,52.61
2023-04-18T09:18:00.378Z,52.27
2023-04-18T09:20:04.894Z,52.53
2023-04-18T09:22:10.132Z,52.22
2023-04-18T09:24:23.680Z,52.61
2023-04-18T09:26:38.185Z,52.47
2023-04-18T09:28:41.661Z,52.42
2023-04-18T09:30:44.820Z,52.11
2023-04-18T09:32:59.423Z,52.07
2023-04-18T09:35:05.557Z,52.32
2023-04-18T09:37:12.215Z,52.34
2023-04-18T09:39:28.606Z,52.22
2023-04-18T09:41:32.699Z,52.22
2023-04-18T09:43:35.822Z,52.22
2023-04-18T09:45:39.306Z,52.30
2023-04-18T09:47:42.364Z,51.90
2023-04-18T09:49:45.193Z,52.10
2023-04-18T09:51:50.144Z,52.06
2023-04-18T09:53:54.956Z,51.99
2023-04-18T09:55:58.933Z,51.82
2023-04-18T09:58:04.779Z,52.03
2023-04-18T10:00:14.444Z,51.97
2023-04-18T10:02:26.186Z,51.99
2023-04-18T10:04:30.558Z,51.99
2023-04-18T10:06:38.423Z,51.92
2023-04-18T10:08:41.868Z,51.64
2023-04-18T10:10:46.033Z,51.60
2023-04-18T10:12:50.769Z,51.57
2023-04-18T10:14:55.612Z,51.57
2023-04-18T10:17:02.221Z,51.79
2023-04-18T10:19:23.876Z,51.63
2023-04-18T10:21:29.975Z,51.74
2023-04-18T10:23:37.742Z,51.84
2023-04-18T10:25:52.268Z,51.63
2023-04-18T10:28:00.079Z,51.72
2023-04-18T10:30:03.090Z,51.85
2023-04-18T10:32:07.327Z,51.74
2023-04-18T10:34:17.489Z,51.56
2023-04-18T10:36:23.733Z,51.56
2023-04-18T10:38:26.612Z,51.54
2023-04-18T10:40:34.173Z,51.64
2023-04-18T10:43:02.196Z,51.70
2023-04-18T10:45:21.988Z,51.47
2023-04-18T10:47:25.027Z,51.32
2023-04-18T10:49:34.596Z,51.56
2023-04-18T10:51:37.416Z,51.66
2023-04-18T10:53:40.503Z,51.50
2023-04-18T10:55:49.708Z,51.56
2023-04-18T10:57:56.250Z,51.24
2023-04-18T11:00:00.981Z,51.55
2023-04-18T11:02:24.582Z,51.47
2023-04-18T11:04:27.602Z,51.22
2023-04-18T11:06:31.303Z,51.44
2023-04-18T11:08:34.153Z,51.48
2023-04-18T11:10:37.362Z,51.23
2023-04-18T11:12:41.504Z,51.23
2023-04-18T11:14:45.481Z,51.34
2023-04-18T11:16:49.891Z,51.32
2023-04-18T11:18:52.896Z,51.09
2023-04-18T11:20:57.445Z,51.17
2023-04-18T11:23:01.578Z,51.09
2023-04-18T11:25:09.063Z,50.99
2023-04-18T11:27:13.389Z,51.11
2023-04-18T11:29:18.363Z,51.00
2023-04-18T11:31:25.583Z,51.28
2023-04-18T11:33:30.397Z,50.84
2023-04-18T11:35:38.600Z,50.79
2023-04-18T11:37:43.029Z,50.89
2023-04-18T11:39:45.864Z,50.99
2023-04-18T11:41:51.142Z,50.90
2023-04-18T11:43:54.002Z,50.68
2023-04-18T11:45:58.003Z,50.89
2023-04-18T11:48:01.776Z,50.79
2023-04-18T11:50:07.691Z,50.88
2023-04-18T11:52:13.527Z,50.80
2023-04-18T11:54:38.474Z,50.44
2023-04-18T11:56:48.111Z,50.70
2023-04-18T11:58:51.373Z,50.62
2023-04-18T12:00:55.433Z,50.48
2023-04-18T12:02:59.133Z,50.42
2023-04-18T12:05:02.591Z,50.22
2023-04-18T12:07:07.579Z,50.36
2023-04-18T12:09:14.854Z,50.22
2023-04-18T12:11:21.553Z,50.33
2023-04-18T12:13:33.486Z,50.33
2023-04-18T12:15:40.086Z,50.06
2023-04-18T12:17:45.218Z,49.89
2023-04-18T12:19:49.768Z,49.98
2023-04-18T12:21:58.059Z,50.04
2023-04-18T12:24:15.391Z,49.88
2023-04-18T12:26:22.143Z,49.93
2023-04-18T12:28:27.834Z,49.50
2023-04-18T12:30:32.284Z,49.69
2023-04-18T12:32:35.175Z,49.53
2023-04-18T12:34:38.074Z,49.63
2023-04-18T12:36:41.022Z,49.69
2023-04-18T12:38:44.420Z,49.62
2023-04-18T12:40:48.679Z,49.56
2023-04-18T12:42:52.560Z,49.57
2023-04-18T12:44:55.326Z,49.54
2023-04-18T12:46:58.194Z,49.58
2023-04-18T12:49:01.398Z,49.23
2023-04-18T12:51:05.428Z,49.45
2023-04-18T12:53:08.176Z,49.52
2023-04-18T12:55:11.931Z,49.46
2023-04-18T12:57:16.227Z,49.36
2023-04-18T12:59:19.234Z,49.34
2023-04-18T13:01:22.304Z,49.39
2023-04-18T13:03:25.243Z,49.43
2023-04-18T13:05:33.485Z,49.40
2023-04-18T13:07:41.676Z,49.35
2023-04-18T13:09:46.685Z,49.35
2023-04-18T13:11:49.721Z,49.05
2023-04-18T13:13:54.277Z,49.15
2023-04-18T13:15:57.076Z,49.18
2023-04-18T13:18:06.846Z,49.30
2023-04-18T13:20:12.548Z,49.36
2023-04-18T13:22:15.548Z,49.29
2023-04-18T13:24:20.789Z,49.33
2023-04-18T13:26:25.922Z,49.10
2023-04-18T13:28:29.071Z,49.10
2023-04-18T13:30:35.821Z,48.93
2023-04-18T13:32:39.166Z,49.16
2023-04-18T13:34:44.523Z,49.18
2023-04-18T13:36:47.374Z,49.12
2023-04-18T13:38:50.659Z,48.93
2023-04-18T13:41:01.230Z,49.03
2023-04-18T13:43:15.449Z,49.00
2023-04-18T13:45:18.610Z,49.04
2023-04-18T13:47:23.079Z,49.07
2023-04-18T13:49:26.128Z,49.13
2023-04-18T13:51:29.893Z,49.00
2023-04-18T13:53:32.728Z,49.07
2023-04-18T13:55:36.803Z,49.08
2023-04-18T13:57:39.678Z,49.03
2023-04-18T13:59:42.448Z,49.01
2023-04-18T14:01:45.546Z,49.19
2023-04-18T14:03:50.132Z,49.21
2023-04-18T14:05:53.393Z,49.13
2023-04-18T14:08:01.847Z,49.07
2023-04-18T14:10:05.226Z,49.25
2023-04-18T14:12:08.517Z,49.10
2023-04-18T14:14:11.607Z,49.25
2023-04-18T14:16:14.863Z,49.09
2023-04-18T14:18:21.721Z,49.11
2023-04-18T14:20:26.654Z,49.30
2023-04-18T14:22:29.385Z,49.25
2023-04-18T14:24:32.329Z,49.42
2023-04-18T14:26:35.617Z,49.46
2023-04-18T14:28:40.681Z,49.37
2023-04-18T14:30:47.670Z,49.45
2023-04-18T14:32:50.694Z,49.42
2023-04-18T14:34:53.854Z,49.38
2023-04-18T14:36:58.092Z,49.41
2023-04-18T14:39:01.249Z,49.38
2023-04-18T14:41:05.336Z,49.25
2023-04-18T14:43:08.445Z,49.50
2023-04-18T14:45:12.298Z,49.25
2023-04-18T14:47:15.299Z,49.30
2023-04-18T14:49:21.062Z,49.33
2023-04-18T14:51:24.484Z,49.18
2023-04-18T14:53:28.630Z,48.97
2023-04-18T14:55:32.355Z,49.13
2023-04-18T14:57:35.884Z,49.20
2023-04-18T14:59:38.633Z,49.35
2023-04-18T15:01:41.946Z,49.37
2023-04-18T15:03:45.109Z,49.35
2023-04-18T15:05:48.982Z,49.51
2023-04-18T15:07:52.154Z,49.39
2023-04-18T15:09:56.349Z,49.47
2023-04-18T15:12:00.042Z,49.38
2023-04-18T15:14:02.867Z,49.34
2023-04-18T15:16:06.561Z,49.40
2023-04-18T15:18:12.043Z,49.21
2023-04-18T15:20:15.132Z,49.38
2023-04-18T15:22:17.994Z,49.39
2023-04-18T15:24:20.766Z,49.37
2023-04-18T15:26:26.091Z,49.49
2023-04-18T15:28:28.975Z,49.59
2023-04-18T15:30:31.991Z,49.54
2023-04-18T15:32:35.070Z,49.66
2023-04-18T15:34:37.904Z,49.60
2023-04-18T15:36:41.458Z,49.77
2023-04-18T15:38:44.451Z,49.75
2023-04-18T15:40:47.325Z,49.79
2023-04-18T15:42:54.033Z,49.73
2023-04-18T15:44:56.857Z,49.76
2023-04-18T15:47:01.141Z,49.82
2023-04-18T15:49:03.904Z,49.88
2023-04-18T15:51:06.773Z,49.88
2023-04-18T15:53:09.554Z,49.79
2023-04-18T15:55:13.369Z,49.83
2023-04-18T15:57:16.387Z,49.55
2023-04-18T15:59:20.606Z,49.55
2023-04-18T16:01:23.422Z,49.12
2023-04-18T16:03:26.445Z,49.15
2023-04-18T16:05:29.343Z,48.78
2023-04-18T16:07:32.105Z,48.64
2023-04-18T16:09:34.863Z,48.53
2023-04-18T16:11:37.807Z,48.51
2023-04-18T16:13:40.569Z,48.28
2023-04-18T16:15:44.720Z,48.11
2023-04-18T16:17:47.499Z,48.05
2023-04-18T16:19:50.285Z,47.88
2023-04-18T16:21:53.168Z,48.01
2023-04-18T16:23:55.777Z,47.92
2023-04-18T16:25:58.860Z,47.66
2023-04-18T16:28:01.771Z,47.49
2023-04-18T16:30:05.073Z,47.42
2023-04-18T16:32:09.252Z,47.42
2023-04-18T16:34:12.219Z,47.34
2023-04-18T16:36:15.429Z,47.44
2023-04-18T16:38:18.221Z,47.06
2023-04-18T16:40:21.006Z,47.11
2023-04-18T16:42:24.074Z,46.73
2023-04-18T16:44:26.853Z,46.65
2023-04-18T16:46:32.277Z,46.44
2023-04-18T16:48:38.617Z,46.42
2023-04-18T16:50:43.023Z,46.26
2023-04-18T16:52:45.776Z,46.12
2023-04-18T16:54:50.121Z,45.86
2023-04-18T16:56:55.593Z,45.52
2023-04-18T16:58:59.294Z,45.04
2023-04-18T17:01:02.651Z,44.98
2023-04-18T17:03:06.939Z,44.62
2023-04-18T17:05:12.561Z,44.17
2023-04-18T17:07:15.393Z,43.99
2023-04-18T17:09:19.733Z,44.04
2023-04-18T17:11:22.596Z,43.85
2023-04-18T17:13:26.929Z,43.68
2023-04-18T17:15:29.829Z,43.48
2023-04-18T17:17:32.655Z,43.49
2023-04-18T17:19:35.685Z,43.30
2023-04-18T17:21:39.854Z,43.08
2023-04-18T17:23:43.084Z,43.11
2023-04-18T17:25:46.176Z,43.12
2023-04-18T17:27:48.939Z,43.09
2023-04-18T17:29:51.720Z,42.98
2023-04-18T17:31:54.541Z,42.91
2023-04-18T17:33:59.920Z,42.93
2023-04-18T17:36:04.304Z,42.97
2023-04-18T17:38:10.516Z,42.85
2023-04-18T17:40:13.880Z,42.91
2023-04-18T17:42:16.692Z,42.97
2023-04-18T17:44:19.439Z,43.15
2023-04-18T17:46:22.228Z,43.07
2023-04-18T17:48:25.960Z,43.13
2023-04-18T17:50:29.031Z,43.30
2023-04-18T17:52:31.930Z,43.39
2023-04-18T17:54:36.194Z,43.61
2023-04-18T17:56:38.909Z,43.58
2023-04-18T17:58:42.143Z,43.61
2023-04-18T18:00:45.315Z,43.72
2023-04-18T18:02:48.394Z,43.85
2023-04-18T18:04:51.468Z,44.10
2023-04-18T18:06:55.593Z,44.17
2023-04-18T18:08:58.334Z,44.15
2023-04-18T18:11:02.526Z,44.28
2023-04-18T18:13:05.740Z,44.50
2023-04-18T18:15:09.743Z,44.42
2023-04-18T18:17:12.795Z,44.67
2023-04-18T18:19:16.863Z,44.66
2023-04-18T18:21:19.973Z,44.69
2023-04-18T18:23:22.737Z,44.79
2023-04-18T18:25:25.673Z,44.98
2023-04-18T18:27:29.932Z,45.00
2023-04-18T18:29:32.715Z,45.18
2023-04-18T18:31:35.713Z,45.27
2023-04-18T18:33:38.435Z,45.15
2023-04-18T18:35:41.152Z,45.46
2023-04-18T18:37:44.020Z,45.49
2023-04-18T18:39:46.816Z,45.43
2023-04-18T18:41:49.731Z,45.67
2023-04-18T18:43:54.072Z,45.61
2023-04-18T18:45:56.905Z,45.81
2023-04-18T18:47:59.656Z,45.89
2023-04-18T18:50:02.725Z,45.74
2023-04-18T18:52:06.144Z,46.00
2023-04-18T18:54:08.905Z,46.02
2023-04-18T18:56:11.773Z,46.05
2023-04-18T18:58:14.529Z,45.98
2023-04-18T19:00:19.301Z,46.11
2023-04-18T19:02:22.610Z,46.09
2023-04-18T19:04:26.000Z,46.23
2023-04-18T19:06:28.953Z,46.21
2023-04-18T19:08:31.851Z,46.20
2023-04-18T19:10:34.904Z,46.47
2023-04-18T19:12:38.542Z,46.32
2023-04-18T19:14:42.469Z,46.68
2023-04-18T19:16:47.031Z,46.38
2023-04-18T19:18:50.505Z,46.67
2023-04-18T19:20:53.298Z,46.79
2023-04-18T19:22:56.481Z,46.57
2023-04-18T19:25:00.604Z,46.70
2023-04-18T19:27:03.667Z,46.77
2023-04-18T19:29:07.657Z,46.83
2023-04-18T19:31:10.501Z,46.90
2023-04-18T19:33:14.783Z,46.77
2023-04-18T19:35:17.615Z,46.96
2023-04-18T19:37:20.342Z,47.01
2023-04-18T19:39:23.430Z,47.05
2023-04-18T19:41:26.366Z,47.03
2023-04-18T19:43:29.202Z,47.16
2023-04-18T19:45:32.543Z,46.89
2023-04-18T19:47:35.451Z,46.85
2023-04-18T19:49:39.626Z,47.07
2023-04-18T19:51:42.507Z,47.00
2023-04-18T19:53:45.315Z,47.13
2023-04-18T19:55:48.080Z,47.13
2023-04-18T19:57:56.571Z,47.33
2023-04-18T19:59:59.331Z,47.31
2023-04-18T20:02:06.062Z,47.16
2023-04-18T20:04:09.931Z,47.22
2023-04-18T20:06:14.655Z,47.16
2023-04-18T20:08:17.589Z,47.13
2023-04-18T20:10:21.876Z,47.12
2023-04-18T20:12:24.810Z,47.23
2023-04-18T20:14:28.314Z,47.34
2023-04-18T20:16:31.929Z,47.29
2023-04-18T20:18:35.791Z,47.28
2023-04-18T20:20:38.551Z,47.52
2023-04-18T20:22:44.868Z,47.56
2023-04-18T20:24:48.684Z,47.66
2023-04-18T20:26:51.545Z,47.71
2023-04-18T20:28:54.332Z,47.61
2023-04-18T20:30:57.151Z,47.57
2023-04-18T20:33:00.062Z,47.61
2023-04-18T20:35:04.446Z,47.71
2023-04-18T20:37:10.138Z,47.79
2023-04-18T20:39:15.008Z,47.56
2023-04-18T20:41:20.746Z,47.50
2023-04-18T20:43:24.434Z,47.77
2023-04-18T20:45:27.756Z,47.88
2023-04-18T20:47:30.691Z,47.76
2023-04-18T20:49:34.030Z,47.70
2023-04-18T20:51:37.994Z,47.71
2023-04-18T20:53:40.812Z,47.66
2023-04-18T20:55:44.972Z,47.95
2023-04-18T20:57:47.734Z,47.95
2023-04-18T20:59:50.633Z,47.92
2023-04-18T21:01:53.458Z,47.69
2023-04-18T21:03:56.374Z,47.74
2023-04-18T21:05:59.533Z,47.94
2023-04-18T21:08:02.329Z,48.06
2023-04-18T21:10:05.496Z,48.00
2023-04-18T21:12:09.953Z,47.99
2023-04-18T21:14:12.947Z,47.84
2023-04-18T21:16:15.818Z,48.03
2023-04-18T21:18:19.231Z,47.84
2023-04-18T21:20:22.017Z,48.00
2023-04-18T21:22:24.724Z,47.97
2023-04-18T21:24:27.707Z,47.87
2023-04-18T21:26:30.612Z,48.08
2023-04-18T21:28:34.685Z,47.93
2023-04-18T21:30:37.512Z,47.89
2023-04-18T21:32:40.312Z,47.95
2023-04-18T21:34:43.041Z,48.03
2023-04-18T21:36:46.291Z,48.39
2023-04-18T21:38:49.032Z,48.30
2023-04-18T21:40:51.729Z,48.24
2023-04-18T21:42:54.619Z,48.13
2023-04-18T21:44:58.678Z,48.24
2023-04-18T21:47:01.539Z,48.41
2023-04-18T21:49:04.431Z,48.43
2023-04-18T21:51:07.314Z,48.39
2023-04-18T21:53:10.047Z,48.30
2023-04-18T21:55:12.874Z,48.51
2023-04-18T21:57:15.775Z,48.47
2023-04-18T21:59:18.649Z,48.40
2023-04-18T22:01:23.098Z,48.55
2023-04-18T22:03:27.417Z,48.45
2023-04-18T22:05:30.547Z,48.61
2023-04-18T22:07:43.338Z,48.64
2023-04-18T22:09:53.107Z,48.54
2023-04-18T22:11:57.081Z,48.58
2023-04-18T22:14:00.364Z,48.64
2023-04-18T22:16:03.964Z,48.71
2023-04-18T22:18:08.935Z,48.66
2023-04-18T22:20:12.871Z,48.77
2023-04-18T22:22:15.839Z,48.71
2023-04-18T22:24:19.619Z,48.80
2023-04-18T22:26:22.396Z,48.84
2023-04-18T22:28:25.247Z,48.94
2023-04-18T22:30:28.159Z,48.96
2023-04-18T22:32:30.941Z,48.95
2023-04-18T22:34:35.109Z,49.14
2023-04-18T22:36:38.515Z,49.21
2023-04-18T22:38:41.282Z,49.29
2023-04-18T22:40:44.074Z,49.07
2023-04-18T22:42:46.812Z,49.40
2023-04-18T22:44:49.561Z,49.39
2023-04-18T22:46:54.733Z,49.47
2023-04-18T22:48:58.125Z,49.25
2023-04-18T22:51:02.734Z,49.28
2023-04-18T22:53:05.998Z,49.34
2023-04-18T22:55:09.537Z,49.53
2023-04-18T22:57:12.306Z,49.60
2023-04-18T22:59:15.181Z,49.68
2023-04-18T23:01:18.482Z,49.46
2023-04-18T23:03:21.458Z,49.52
2023-04-18T23:05:24.629Z,49.72
2023-04-18T23:07:28.982Z,49.81
2023-04-18T23:09:32.148Z,49.87
2023-04-18T23:11:34.928Z,49.83
2023-04-18T23:13:37.717Z,49.67
2023-04-18T23:15:40.617Z,50.08
2023-04-18T23:17:43.485Z,50.14
2023-04-18T23:19:46.238Z,50.08
2023-04-18T23:21:49.744Z,50.19
2023-04-18T23:23:53.938Z,50.19
2023-04-18T23:25:56.976Z,50.08
2023-04-18T23:28:00.051Z,50.01
2023-04-18T23:30:03.235Z,50.02
2023-04-18T23:32:06.465Z,50.13
2023-04-18T23:34:09.204Z,50.38
2023-04-18T23:36:14.189Z,50.55
2023-04-18T23:38:17.168Z,50.33
2023-04-18T23:40:21.714Z,50.24
2023-04-18T23:42:25.578Z,50.50
2023-04-18T23:44:28.438Z,50.42
2023-04-18T23:46:31.397Z,50.39
2023-04-18T23:48:34.317Z,50.63
2023-04-18T23:50:37.478Z,50.64
2023-04-18T23:52:40.510Z,50.73
2023-04-18T23:54:43.512Z,50.64
2023-04-18T23:56:47.679Z,50.64
2023-04-18T23:58:50.541Z,50.62
